createdAt,value
2022-09-07T00:00:06.024Z,5.22
2022-09-07T00:05:08.710Z,6.43
2022-09-07T00:10:10.421Z,5.00
2022-09-07T00:15:12.848Z,4.93
2022-09-07T00:20:15.105Z,5.78
2022-09-07T00:25:17.073Z,5.72
2022-09-07T00:30:18.774Z,5.23
2022-09-07T00:35:20.477Z,6.60
2022-09-07T00:40:22.145Z,6.45
2022-09-07T00:45:24.205Z,6.10
2022-09-07T00:50:35.178Z,7.20
2022-09-07T00:55:38.449Z,5.13
2022-09-07T01:00:41.771Z,6.32
2022-09-07T01:05:48.533Z,7.03
2022-09-07T01:10:50.293Z,6.30
2022-09-07T01:16:01.059Z,6.13
2022-09-07T01:21:14.431Z,5.55
2022-09-07T01:26:51.691Z,5.40
2022-09-07T01:32:05.409Z,6.78
2022-09-07T01:37:46.231Z,6.05
2022-09-07T01:43:04.445Z,5.88
2022-09-07T01:48:10.361Z,6.07
2022-09-07T01:53:17.962Z,7.07
2022-09-07T01:58:40.996Z,5.88
2022-09-07T02:09:30.278Z,7.30
2022-09-07T02:14:41.502Z,5.70
2022-09-07T02:19:54.518Z,7.53
2022-09-07T02:25:00.044Z,6.13
2022-09-07T02:30:02.127Z,6.53
2022-09-07T02:35:04.972Z,6.73
2022-09-07T02:45:12.021Z,7.27
2022-09-07T02:50:37.485Z,6.85
2022-09-07T02:55:45.609Z,6.90
2022-09-07T03:01:06.032Z,7.45
2022-09-07T03:06:32.614Z,7.85
2022-09-07T03:11:37.679Z,8.65
2022-09-07T03:16:39.675Z,8.25
2022-09-07T03:21:41.487Z,8.07
2022-09-07T03:26:46.813Z,8.27
2022-09-07T03:31:48.626Z,8.90
2022-09-07T03:36:50.401Z,7.93
2022-09-07T03:41:52.025Z,8.63
2022-09-07T03:46:53.759Z,8.07
2022-09-07T03:51:55.583Z,7.95
2022-09-07T03:56:57.385Z,7.87
2022-09-07T04:01:59.132Z,8.45
2022-09-07T04:07:00.870Z,7.07
2022-09-07T04:12:02.944Z,6.93
2022-09-07T04:17:04.681Z,6.53
2022-09-07T04:22:06.327Z,7.15
2022-09-07T04:27:08.051Z,6.95
2022-09-07T04:32:13.477Z,5.80
2022-09-07T04:37:17.313Z,6.57
2022-09-07T04:42:18.940Z,5.45
2022-09-07T04:47:20.671Z,7.32
2022-09-07T04:52:22.615Z,7.05
2022-09-07T04:57:26.538Z,7.07
2022-09-07T05:02:28.299Z,7.95
2022-09-07T05:07:30.059Z,6.07
2022-09-07T05:12:31.739Z,7.70
2022-09-07T05:17:33.447Z,4.43
2022-09-07T05:22:35.614Z,6.82
2022-09-07T05:27:37.302Z,6.13
2022-09-07T05:32:38.951Z,6.10
2022-09-07T05:37:40.971Z,6.60
2022-09-07T05:42:42.660Z,7.90
2022-09-07T05:47:44.313Z,7.05
2022-09-07T05:52:47.844Z,5.80
2022-09-07T05:57:49.808Z,6.60
2022-09-07T06:02:51.588Z,8.15
2022-09-07T06:07:53.303Z,6.53
2022-09-07T06:12:54.904Z,7.85
2022-09-07T06:17:56.627Z,8.02
2022-09-07T06:22:58.946Z,8.32
2022-09-07T06:28:00.891Z,7.72
2022-09-07T06:33:02.530Z,7.13
2022-09-07T06:38:04.294Z,7.60
2022-09-07T06:43:06.416Z,8.15
2022-09-07T06:48:08.079Z,8.40
2022-09-07T06:58:31.974Z,7.55
2022-09-07T07:03:34.506Z,7.10
2022-09-07T07:08:36.534Z,5.70
2022-09-07T07:13:40.233Z,5.30
2022-09-07T07:18:43.377Z,4.70
2022-09-07T07:23:49.327Z,4.97
2022-09-07T07:29:07.090Z,3.90
2022-09-07T07:34:09.119Z,4.63
2022-09-07T07:44:32.904Z,3.37
2022-09-07T07:49:34.561Z,3.42
2022-09-07T07:54:39.204Z,3.40
2022-09-07T07:59:40.802Z,3.13
2022-09-07T08:04:42.593Z,3.13
2022-09-07T08:09:46.143Z,3.00
2022-09-07T08:14:48.295Z,3.47
2022-09-07T08:19:50.989Z,3.05
2022-09-07T08:24:52.871Z,3.05
2022-09-07T08:29:54.935Z,2.70
2022-09-07T08:34:56.751Z,2.80
2022-09-07T08:39:58.556Z,2.50
2022-09-07T08:45:11.611Z,3.10
2022-09-07T08:55:36.372Z,3.15
2022-09-07T09:00:39.663Z,2.70
2022-09-07T09:05:55.290Z,3.40
2022-09-07T09:11:03.051Z,3.50
2022-09-07T09:16:18.932Z,3.00
2022-09-07T09:21:20.969Z,3.50
2022-09-07T09:26:25.356Z,3.63
2022-09-07T09:31:35.171Z,3.00
2022-09-07T09:36:54.712Z,3.08
2022-09-07T09:41:59.794Z,2.67
2022-09-07T09:52:29.701Z,2.97
2022-09-07T10:08:58.886Z,3.25
2022-09-07T10:14:00.784Z,3.30
2022-09-07T10:19:03.190Z,3.20
2022-09-07T10:24:04.765Z,3.20
2022-09-07T10:29:15.238Z,2.70
2022-09-07T10:34:27.482Z,2.85
2022-09-07T10:39:43.658Z,2.90
2022-09-07T10:45:10.315Z,3.00
2022-09-07T10:50:32.929Z,2.90
2022-09-07T11:01:09.813Z,2.72
2022-09-07T11:06:37.665Z,2.47
2022-09-07T11:17:27.517Z,2.78
2022-09-07T11:22:52.025Z,2.28
2022-09-07T11:28:20.108Z,2.60
2022-09-07T11:33:30.574Z,2.80
2022-09-07T11:38:39.406Z,2.47
2022-09-07T11:43:55.653Z,2.80
2022-09-07T11:48:58.355Z,2.40
2022-09-07T11:54:17.232Z,2.60
2022-09-07T11:59:38.217Z,2.90
2022-09-07T12:05:02.752Z,2.60
2022-09-07T12:10:36.531Z,2.78
2022-09-07T12:15:57.193Z,2.55
2022-09-07T12:20:59.302Z,2.30
2022-09-07T12:26:35.640Z,2.78
2022-09-07T12:31:59.836Z,2.65
2022-09-07T12:37:12.460Z,2.65
2022-09-07T12:42:37.971Z,2.33
2022-09-07T12:47:40.427Z,2.40
2022-09-07T12:52:48.700Z,2.70
2022-09-07T12:58:17.329Z,2.33
2022-09-07T13:03:51.819Z,2.53
2022-09-07T13:08:54.119Z,2.30
2022-09-07T13:14:14.345Z,2.05
2022-09-07T13:20:02.572Z,2.60
2022-09-07T13:25:23.647Z,2.10
2022-09-07T13:30:36.353Z,2.40
2022-09-07T13:35:39.030Z,1.90
2022-09-07T13:40:46.561Z,2.15
2022-09-07T13:45:53.999Z,2.38
2022-09-07T13:51:23.937Z,2.28
2022-09-07T13:56:37.439Z,2.20
2022-09-07T14:01:45.005Z,2.30
2022-09-07T14:06:46.665Z,2.28
2022-09-07T14:11:54.096Z,1.90
2022-09-07T14:17:02.471Z,2.30
2022-09-07T14:22:14.350Z,2.25
2022-09-07T14:27:37.637Z,2.10
2022-09-07T14:32:39.284Z,2.05
2022-09-07T14:37:41.706Z,2.22
2022-09-07T14:42:43.379Z,2.15
2022-09-07T14:47:47.186Z,2.30
2022-09-07T14:58:15.483Z,1.98
2022-09-07T15:08:38.683Z,2.05
2022-09-07T15:13:44.970Z,2.13
2022-09-07T15:18:54.397Z,2.05
2022-09-07T15:23:58.493Z,1.80
2022-09-07T15:29:15.481Z,2.15
2022-09-07T15:34:19.703Z,1.60
2022-09-07T15:39:25.248Z,2.30
2022-09-07T15:44:28.569Z,1.90
2022-09-07T15:49:30.295Z,1.83
2022-09-07T15:54:35.089Z,2.25
2022-09-07T15:59:38.754Z,1.92
2022-09-07T16:04:41.188Z,2.00
2022-09-07T16:09:43.376Z,1.98
2022-09-07T16:14:45.254Z,1.75
2022-09-07T16:19:46.895Z,2.00
2022-09-07T16:24:48.849Z,2.00
2022-09-07T16:29:51.614Z,2.33
2022-09-07T16:34:53.318Z,2.13
2022-09-07T16:39:55.159Z,1.98
2022-09-07T16:46:02.544Z,2.45
2022-09-07T16:50:18.535Z,3.10
2022-09-07T16:55:20.666Z,2.80
2022-09-07T17:00:22.361Z,3.20
2022-09-07T17:05:24.083Z,3.10
2022-09-07T17:10:26.140Z,3.10
2022-09-07T17:15:27.776Z,3.25
2022-09-07T17:20:29.430Z,3.20
2022-09-07T17:25:33.200Z,3.00
2022-09-07T17:30:35.402Z,2.90
2022-09-07T17:35:37.522Z,2.92
2022-09-07T17:40:39.232Z,3.00
2022-09-07T17:45:40.955Z,3.50
2022-09-07T17:50:42.773Z,3.17
2022-09-07T17:55:44.884Z,3.33
2022-09-07T18:00:47.457Z,3.15
2022-09-07T18:05:53.734Z,3.00
2022-09-07T18:16:32.735Z,3.70
2022-09-07T18:21:36.552Z,3.38
2022-09-07T18:26:41.221Z,3.17
2022-09-07T18:31:42.978Z,3.55
2022-09-07T18:36:44.734Z,3.73
2022-09-07T18:41:46.549Z,3.60
2022-09-07T18:46:48.170Z,3.05
2022-09-07T18:57:11.890Z,3.47
2022-09-07T19:02:14.258Z,3.53
2022-09-07T19:07:16.005Z,3.80
2022-09-07T19:12:17.582Z,3.13
2022-09-07T19:17:19.315Z,3.23
2022-09-07T19:22:20.981Z,3.50
2022-09-07T19:27:22.604Z,3.17
2022-09-07T19:32:25.525Z,3.10
2022-09-07T19:37:28.881Z,4.05
2022-09-07T19:42:30.750Z,3.63
2022-09-07T19:47:33.619Z,3.40
2022-09-07T19:52:35.314Z,4.05
2022-09-07T19:57:37.260Z,3.73
2022-09-07T20:02:39.557Z,3.75
2022-09-07T20:07:41.307Z,4.05
2022-09-07T20:12:43.147Z,4.25
2022-09-07T20:17:47.013Z,3.87
2022-09-07T20:22:49.057Z,4.05
2022-09-07T20:27:51.243Z,3.67
2022-09-07T20:32:53.081Z,4.10
2022-09-07T20:37:54.891Z,4.23
2022-09-07T20:43:06.005Z,3.90
2022-09-07T20:48:07.912Z,3.80
2022-09-07T20:53:09.589Z,3.60
2022-09-07T20:58:11.522Z,4.30
2022-09-07T21:03:14.609Z,4.70
2022-09-07T21:08:16.560Z,4.32
2022-09-07T21:13:18.245Z,5.17
2022-09-07T21:18:19.878Z,4.88
2022-09-07T21:23:22.042Z,4.70
2022-09-07T21:28:24.570Z,4.85
2022-09-07T21:33:27.698Z,4.80
2022-09-07T21:38:29.442Z,4.03
2022-09-07T21:43:31.225Z,4.15
2022-09-07T21:48:33.231Z,4.18
2022-09-07T21:53:35.322Z,4.73
2022-09-07T21:58:37.064Z,4.73
2022-09-07T22:03:40.368Z,4.50
2022-09-07T22:08:42.524Z,4.70
2022-09-07T22:13:44.694Z,4.70
2022-09-07T22:18:46.592Z,4.80
2022-09-07T22:23:50.977Z,5.23
2022-09-07T22:28:53.102Z,4.07
2022-09-07T22:33:56.760Z,4.32
2022-09-07T22:39:00.549Z,4.40
2022-09-07T22:44:02.830Z,4.97
2022-09-07T22:49:05.819Z,4.35
2022-09-07T22:54:08.420Z,6.30
2022-09-07T23:04:13.248Z,3.92
2022-09-07T23:09:17.383Z,3.47
2022-09-07T23:14:22.100Z,3.10
2022-09-07T23:19:23.860Z,2.50
2022-09-07T23:24:25.499Z,3.10
2022-09-07T23:29:27.122Z,3.13
2022-09-07T23:34:28.716Z,3.25
2022-09-07T23:39:30.458Z,3.58
2022-09-07T23:44:32.070Z,4.18
2022-09-07T23:49:33.600Z,3.40
2022-09-07T23:54:35.263Z,4.05
2022-09-07T23:59:36.947Z,3.92
